Ellsworth Air Force Base
KRCA : now visible

Airfield :











YOU CAN JOIN US ON...

 
LOGIN :

Register | Disclaimer

   EN    FR    IT 

 









Legend :    VFR   Marginal VFR   IFR   Intensive IFR   Very Intensive IFR
Visi :
Ceiling :
>= 8 km
>= 3000ft
5 to 8 km
1000 to 3000 ft
1500m to 5 km
500 to 1000 ft
800 to 1500m
200 to 500 ft
< 800m
< 200 ft
Symbols :   Thunderstorms  Fog  Heavy snow  Heavy precipitations  Wind > 20 kt






- Airport Elevation : 3276 ft


KRCA - Ellsworth Air Force Base

CURRENT METAR :
  • 282156Z AUTO 35013KT 10SM FEW080 FEW095 20/03 A3024 RMK AO2 SLP232 T02040031 $

EXPIRED METARs :
  • 282056Z AUTO 36013G18KT 10SM FEW090 20/02 A3026 RMK AO2 SLP243 T01970021 57010 $
  • 282044Z 34012KT 10SM FEW075 SCT100 20/01 A3027 RMK SLP247 $
  • 281956Z AUTO 35012KT 10SM OVC070 18/02 A3028 RMK AO2 SLP252 T01810020 $

TAF TAF KRCA
Valid from the 28 at 19:00 until the 30 at 01:00 UTC


281900Z 2819/3001 33012G18KT 9999 BKN100 QNH3022INS
BECMG 2823/2824 VRB06KT 9999 SCT100 QNH3022INS
BECMG 2914/2915 13012G18KT 9999 FEW030 QNH3012INS TX21/2919Z TN12/2911Z
KZDV FIR / North America



MET'MAP, your aeronautical weather chart ! - Copyright ORBIFLY December 2007 - Disclaimer

ORBIFLY MET'MAP TEAM :

Programming & Development : Alexandra Zaïnal
Concept & original design : Baudouin d'Aumeries
Assistance for programming : Marc-Olivier Méhu
Technical & hardware support : Manuel Goepfert

Contact : metmap@orbifly.com




SOURCES & CREDITS :

   NOAA       Earth
Advisory